Time;durP1;ratioP1;P1;durP2;ratioP2;P2;SDS_P1;SDS_P2;PMS_P1;PMS_P2;Temp;Humidity;BMP_temperature;BMP_pressure;BME280_temperature;BME280_humidity;BME280_pressure;Samples;Min_cycle;Max_cycle;Signal;HPM_P1;HPM_P2
2021/06/17 00:00:30;;;;;;;13.98;11.48;;;;;;;;;;5105246;28;20199;-63
2021/06/17 00:02:58;;;;;;;11.27;10.17;;;;;;;;;;5105380;28;20223;-62
2021/06/17 00:05:26;;;;;;;14.40;10.55;;;;;;;;;;5104655;28;20208;-63
2021/06/17 00:07:51;;;;;;;13.23;11.70;;;;;;;;;;5102757;28;20198;-64
2021/06/17 00:10:30;;;;;;;11.85;10.65;;;;;;;;;;5118742;27;20180;-61
2021/06/17 00:12:57;;;;;;;12.97;11.67;;;;;;;;;;5106197;28;20567;-63
2021/06/17 00:15:26;;;;;;;12.88;11.52;;;;;;;;;;5109449;28;20234;-63
2021/06/17 00:17:57;;;;;;;12.95;11.75;;;;;;;;;;5107484;28;20246;-61
2021/06/17 00:20:25;;;;;;;12.82;11.50;;;;;;;;;;5108331;28;20212;-63
2021/06/17 00:22:56;;;;;;;14.52;12.30;;;;;;;;;;5112919;27;20203;-62
2021/06/17 00:25:23;;;;;;;13.63;12.23;;;;;;;;;;5112572;28;20215;-63
2021/06/17 00:27:49;;;;;;;14.90;12.67;;;;;;;;;;5108786;28;20194;-63
2021/06/17 00:30:15;;;;;;;15.60;13.00;;;;;;;;;;5123687;27;20274;-62
2021/06/17 00:32:41;;;;;;;17.17;12.85;;;;;;;;;;5102105;28;20198;-63
2021/06/17 00:35:08;;;;;;;15.40;13.33;;;;;;;;;;5099393;28;20568;-62
2021/06/17 00:37:33;;;;;;;13.80;12.45;;;;;;;;;;5110467;27;20206;-62
2021/06/17 00:40:01;;;;;;;13.55;12.02;;;;;;;;;;5111533;27;20187;-63
2021/06/17 00:42:26;;;;;;;16.10;12.63;;;;;;;;;;5102593;27;20258;-63
2021/06/17 00:44:52;;;;;;;14.07;12.60;;;;;;;;;;5100843;28;20211;-63
2021/06/17 00:47:20;;;;;;;16.20;12.90;;;;;;;;;;5109064;28;20187;-62
2021/06/17 00:49:46;;;;;;;14.37;12.60;;;;;;;;;;5109230;28;20706;-62
2021/06/17 00:52:11;;;;;;;15.57;13.30;;;;;;;;;;5103515;28;20195;-63
2021/06/17 00:54:39;;;;;;;14.25;12.85;;;;;;;;;;5104550;28;20207;-61
2021/06/17 00:57:07;;;;;;;14.63;12.93;;;;;;;;;;5104100;28;20222;-62
2021/06/17 00:59:33;;;;;;;16.75;14.15;;;;;;;;;;5102200;28;20180;-62
2021/06/17 01:02:06;;;;;;;15.52;12.27;;;;;;;;;;5125471;27;20701;-62
2021/06/17 01:04:32;;;;;;;15.23;13.60;;;;;;;;;;5105992;28;20630;-63
2021/06/17 01:07:00;;;;;;;11.65;10.40;;;;;;;;;;5104899;28;23902;-62
2021/06/17 01:09:48;;;;;;;12.48;9.95;;;;;;;;;;5108901;28;20256;-63
2021/06/17 01:12:25;;;;;;;11.85;10.68;;;;;;;;;;5112467;28;20232;-63
2021/06/17 01:14:58;;;;;;;15.45;13.88;;;;;;;;;;5119719;28;20214;-62
2021/06/17 01:17:29;;;;;;;14.25;12.85;;;;;;;;;;5113033;28;20195;-63
2021/06/17 01:20:24;;;;;;;14.85;13.45;;;;;;;;;;5122747;27;20211;-64
2021/06/17 01:22:52;;;;;;;16.55;14.85;;;;;;;;;;5099508;28;20555;-63
2021/06/17 01:25:35;;;;;;;16.42;14.93;;;;;;;;;;5106454;28;20212;-63
2021/06/17 01:28:18;;;;;;;19.50;15.70;;;;;;;;;;5105979;28;21584;-63
2021/06/17 01:31:05;;;;;;;18.77;15.93;;;;;;;;;;5125154;27;20176;-62
2021/06/17 01:33:37;;;;;;;19.65;16.10;;;;;;;;;;5110916;27;20339;-62
2021/06/17 01:36:10;;;;;;;17.90;15.97;;;;;;;;;;5107847;28;20184;-62
2021/06/17 01:38:41;;;;;;;17.90;16.05;;;;;;;;;;5110143;27;20185;-63
2021/06/17 01:41:09;;;;;;;18.07;15.53;;;;;;;;;;5115831;27;20329;-63
2021/06/17 01:43:41;;;;;;;19.83;15.07;;;;;;;;;;5113841;28;20240;-62
2021/06/17 01:46:10;;;;;;;18.80;16.15;;;;;;;;;;5110821;28;20717;-63
2021/06/17 01:48:40;;;;;;;19.15;16.33;;;;;;;;;;5109438;27;20222;-62
2021/06/17 01:51:09;;;;;;;17.90;15.95;;;;;;;;;;5106262;28;20558;-63
2021/06/17 01:53:40;;;;;;;18.87;16.73;;;;;;;;;;5111235;27;20213;-63
2021/06/17 01:56:07;;;;;;;18.73;16.80;;;;;;;;;;5122060;27;20256;-62
2021/06/17 01:58:32;;;;;;;19.55;17.60;;;;;;;;;;5119140;27;20186;-63
2021/06/17 02:01:03;;;;;;;20.65;18.45;;;;;;;;;;5112266;27;20651;-63
2021/06/17 02:03:32;;;;;;;21.00;17.40;;;;;;;;;;5103969;28;20196;-62
2021/06/17 02:05:57;;;;;;;22.07;18.50;;;;;;;;;;5105623;28;20245;-63
2021/06/17 02:08:29;;;;;;;22.70;18.50;;;;;;;;;;5109441;27;20195;-60
2021/06/17 02:11:00;;;;;;;17.83;15.87;;;;;;;;;;5108397;27;20267;-64
2021/06/17 02:13:28;;;;;;;17.77;15.77;;;;;;;;;;5100373;27;20233;-63
2021/06/17 02:15:56;;;;;;;18.83;14.45;;;;;;;;;;5112452;28;20281;-62
2021/06/17 02:18:27;;;;;;;19.55;14.90;;;;;;;;;;5107363;28;20205;-63
2021/06/17 02:20:55;;;;;;;18.38;15.18;;;;;;;;;;5110644;27;20242;-62
2021/06/17 02:23:22;;;;;;;17.55;15.07;;;;;;;;;;5107692;28;20188;-63
2021/06/17 02:25:53;;;;;;;17.42;15.60;;;;;;;;;;5104887;28;20209;-63
2021/06/17 02:28:23;;;;;;;16.92;15.02;;;;;;;;;;5103110;28;20234;-62
2021/06/17 02:30:50;;;;;;;17.48;15.35;;;;;;;;;;5110662;28;20196;-63
2021/06/17 02:33:20;;;;;;;18.63;15.63;;;;;;;;;;5109690;28;20750;-62
2021/06/17 02:35:49;;;;;;;22.73;16.15;;;;;;;;;;5107900;28;20349;-63
2021/06/17 02:38:23;;;;;;;16.23;13.95;;;;;;;;;;5093305;27;20199;-62
2021/06/17 02:40:50;;;;;;;15.32;13.48;;;;;;;;;;5110578;27;20252;-62
2021/06/17 02:43:24;;;;;;;16.42;14.60;;;;;;;;;;5105423;28;20262;-62
2021/06/17 02:45:54;;;;;;;15.43;13.77;;;;;;;;;;5109984;28;20298;-63
2021/06/17 02:48:24;;;;;;;14.32;12.93;;;;;;;;;;5105732;28;20588;-63
2021/06/17 02:50:51;;;;;;;14.35;12.93;;;;;;;;;;5106050;28;20556;-61
2021/06/17 02:53:21;;;;;;;15.30;13.70;;;;;;;;;;5106926;28;20206;-63
2021/06/17 02:55:49;;;;;;;15.27;13.75;;;;;;;;;;5108941;27;20254;-64
2021/06/17 02:58:51;;;;;;;17.17;14.57;;;;;;;;;;5098881;28;20248;-63
2021/06/17 03:01:41;;;;;;;16.23;14.60;;;;;;;;;;5095230;28;20187;-62
2021/06/17 03:04:16;;;;;;;16.63;13.48;;;;;;;;;;5110861;28;20251;-64
2021/06/17 03:06:49;;;;;;;18.48;14.27;;;;;;;;;;5104417;28;20199;-62
2021/06/17 03:09:19;;;;;;;16.17;13.95;;;;;;;;;;5106436;27;20206;-62
2021/06/17 03:11:51;;;;;;;17.38;14.90;;;;;;;;;;5112135;27;20184;-62
2021/06/17 03:14:22;;;;;;;18.70;15.25;;;;;;;;;;5100987;28;20340;-63
2021/06/17 03:16:52;;;;;;;15.77;13.50;;;;;;;;;;5124768;27;20295;-62
2021/06/17 03:19:22;;;;;;;14.85;13.35;;;;;;;;;;5103880;28;20180;-62
2021/06/17 03:21:51;;;;;;;15.95;14.40;;;;;;;;;;5109201;28;20280;-63
2021/06/17 03:24:25;;;;;;;17.98;16.08;;;;;;;;;;5101525;28;20211;-63
2021/06/17 03:26:52;;;;;;;19.77;15.68;;;;;;;;;;5108579;27;20192;-62
2021/06/17 03:29:25;;;;;;;16.15;14.55;;;;;;;;;;5109658;28;20783;-63
2021/06/17 03:31:56;;;;;;;16.30;14.65;;;;;;;;;;5110216;28;20210;-63
2021/06/17 03:34:24;;;;;;;19.45;15.82;;;;;;;;;;5101111;28;20208;-62
2021/06/17 03:36:53;;;;;;;17.38;15.57;;;;;;;;;;5109724;28;20572;-64
2021/06/17 03:39:21;;;;;;;19.45;15.15;;;;;;;;;;5109193;27;20188;-63
2021/06/17 03:41:51;;;;;;;17.63;15.52;;;;;;;;;;5114001;27;20183;-63
2021/06/17 03:44:20;;;;;;;17.02;15.15;;;;;;;;;;5103371;28;20207;-63
2021/06/17 03:46:46;;;;;;;18.75;15.60;;;;;;;;;;5106460;28;20660;-63
2021/06/17 03:49:16;;;;;;;18.33;16.38;;;;;;;;;;5107527;28;20207;-64
2021/06/17 03:51:44;;;;;;;17.38;15.68;;;;;;;;;;5107953;28;20187;-62
2021/06/17 03:54:09;;;;;;;18.52;16.23;;;;;;;;;;5109922;28;20203;-63
2021/06/17 03:56:36;;;;;;;18.60;15.85;;;;;;;;;;5103078;28;20195;-63
2021/06/17 03:59:07;;;;;;;17.17;15.30;;;;;;;;;;5100193;28;20265;-63
2021/06/17 04:01:34;;;;;;;17.13;15.40;;;;;;;;;;5106346;28;20176;-63
2021/06/17 04:04:00;;;;;;;20.17;16.67;;;;;;;;;;5107395;28;20217;-64
2021/06/17 04:06:30;;;;;;;20.25;16.23;;;;;;;;;;5108846;28;20180;-63
2021/06/17 04:08:57;;;;;;;20.33;15.82;;;;;;;;;;5104978;28;20265;-63
2021/06/17 04:11:28;;;;;;;19.70;16.08;;;;;;;;;;5104901;27;20678;-62
2021/06/17 04:13:58;;;;;;;18.98;16.98;;;;;;;;;;5102582;28;20347;-62
2021/06/17 04:16:29;;;;;;;18.98;17.08;;;;;;;;;;5105149;28;20781;-63
2021/06/17 04:18:57;;;;;;;22.53;16.80;;;;;;;;;;5112376;28;20681;-63
2021/06/17 04:21:25;;;;;;;20.20;18.20;;;;;;;;;;5102301;28;20188;-62
2021/06/17 04:23:54;;;;;;;19.75;17.30;;;;;;;;;;5109905;28;20917;-63
2021/06/17 04:26:26;;;;;;;19.67;16.53;;;;;;;;;;5110977;27;21043;-62
2021/06/17 04:28:53;;;;;;;19.33;17.43;;;;;;;;;;5100054;28;20211;-62
2021/06/17 04:31:22;;;;;;;20.70;18.13;;;;;;;;;;5110228;28;20195;-61
2021/06/17 04:33:53;;;;;;;21.27;18.90;;;;;;;;;;5104838;28;20193;-63
2021/06/17 04:36:23;;;;;;;22.00;18.70;;;;;;;;;;5104428;28;20206;-60
2021/06/17 04:38:51;;;;;;;20.43;18.20;;;;;;;;;;5106609;28;20190;-62
2021/06/17 04:41:16;;;;;;;20.73;18.53;;;;;;;;;;5110469;27;20195;-62
2021/06/17 04:43:44;;;;;;;24.53;17.00;;;;;;;;;;5103860;28;20258;-61
2021/06/17 04:46:13;;;;;;;21.07;17.80;;;;;;;;;;5110078;28;20184;-63
2021/06/17 04:48:47;;;;;;;21.60;18.67;;;;;;;;;;5096232;28;20228;-62
2021/06/17 04:51:16;;;;;;;20.97;18.70;;;;;;;;;;5105154;28;20687;-62
2021/06/17 04:53:43;;;;;;;21.57;19.23;;;;;;;;;;5106991;28;20187;-62
2021/06/17 04:56:12;;;;;;;21.23;18.47;;;;;;;;;;5114966;27;20236;-62
2021/06/17 04:58:42;;;;;;;20.93;18.80;;;;;;;;;;5108951;28;20654;-62
2021/06/17 05:01:10;;;;;;;24.67;19.70;;;;;;;;;;5125233;27;20267;-62
2021/06/17 05:03:37;;;;;;;21.00;18.93;;;;;;;;;;5106092;28;20655;-62
2021/06/17 05:06:08;;;;;;;22.30;19.40;;;;;;;;;;5124377;27;20797;-62
2021/06/17 05:11:21;;;;;;;21.15;18.83;;;;;;;;;;5114556;27;20311;-62
2021/06/17 05:13:51;;;;;;;21.27;19.07;;;;;;;;;;5100977;27;20213;-62
2021/06/17 05:16:19;;;;;;;22.40;19.05;;;;;;;;;;5106794;27;20549;-62
2021/06/17 05:18:44;;;;;;;21.17;19.02;;;;;;;;;;5107889;28;20593;-62
2021/06/17 05:21:10;;;;;;;20.77;18.60;;;;;;;;;;5114552;28;20184;-62
2021/06/17 05:23:44;;;;;;;23.00;20.15;;;;;;;;;;5111829;28;20352;-63
2021/06/17 05:26:10;;;;;;;20.75;18.70;;;;;;;;;;5100757;28;20207;-62
2021/06/17 05:28:36;;;;;;;21.48;19.48;;;;;;;;;;5106516;28;20218;-63
2021/06/17 05:31:09;;;;;;;21.95;19.65;;;;;;;;;;5112430;28;20275;-62
2021/06/17 05:33:34;;;;;;;21.40;19.10;;;;;;;;;;5103291;27;20191;-63
2021/06/17 05:36:02;;;;;;;22.05;19.98;;;;;;;;;;5111375;28;20193;-63
2021/06/17 05:38:33;;;;;;;21.10;18.60;;;;;;;;;;5103705;28;20203;-62
2021/06/17 05:41:01;;;;;;;20.67;18.60;;;;;;;;;;5105209;27;20679;-61
2021/06/17 05:43:27;;;;;;;21.48;18.88;;;;;;;;;;5109229;27;20907;-63
2021/06/17 05:45:53;;;;;;;21.58;19.38;;;;;;;;;;5112380;28;20260;-61
2021/06/17 05:48:20;;;;;;;20.35;17.80;;;;;;;;;;5103311;28;20215;-63
2021/06/17 05:50:48;;;;;;;20.85;18.75;;;;;;;;;;5109881;27;20187;-63
2021/06/17 05:53:13;;;;;;;20.42;18.20;;;;;;;;;;5110181;28;20225;-62
2021/06/17 05:55:43;;;;;;;20.45;17.55;;;;;;;;;;5108598;27;20220;-62
2021/06/17 05:58:11;;;;;;;19.45;17.20;;;;;;;;;;5112089;27;20702;-59
2021/06/17 06:00:39;;;;;;;18.58;16.88;;;;;;;;;;5127834;27;20184;-63
2021/06/17 06:03:05;;;;;;;23.83;17.52;;;;;;;;;;5103743;28;20204;-61
2021/06/17 06:05:30;;;;;;;21.50;17.05;;;;;;;;;;5104110;28;20605;-62
2021/06/17 06:08:03;;;;;;;18.10;16.17;;;;;;;;;;5112041;28;23323;-63
2021/06/17 06:10:32;;;;;;;18.52;16.63;;;;;;;;;;5093247;27;20186;-62
2021/06/17 06:12:57;;;;;;;18.70;16.75;;;;;;;;;;5104542;27;20302;-63
2021/06/17 06:15:25;;;;;;;20.27;17.52;;;;;;;;;;5098160;28;20235;-63
2021/06/17 06:17:50;;;;;;;20.00;15.88;;;;;;;;;;5101892;28;20195;-63
2021/06/17 06:20:16;;;;;;;17.58;15.75;;;;;;;;;;5099333;28;20177;-63
2021/06/17 06:22:44;;;;;;;17.55;15.65;;;;;;;;;;5102920;28;20191;-63
2021/06/17 06:25:13;;;;;;;19.00;15.82;;;;;;;;;;5105366;28;20221;-62
2021/06/17 06:27:41;;;;;;;17.30;15.27;;;;;;;;;;5105353;28;20188;-63
2021/06/17 06:30:09;;;;;;;17.13;15.32;;;;;;;;;;5110175;27;20239;-62
2021/06/17 06:32:35;;;;;;;17.45;14.75;;;;;;;;;;5104469;28;20218;-63
2021/06/17 06:35:04;;;;;;;15.98;14.32;;;;;;;;;;5104287;27;20228;-65
2021/06/17 06:37:31;;;;;;;16.88;15.23;;;;;;;;;;5108385;28;20223;-62
2021/06/17 06:39:59;;;;;;;18.35;14.63;;;;;;;;;;5104608;28;20187;-62
2021/06/17 06:42:29;;;;;;;16.42;14.77;;;;;;;;;;5106076;28;20179;-63
2021/06/17 06:44:56;;;;;;;19.70;14.50;;;;;;;;;;5114388;28;20222;-63
2021/06/17 06:47:22;;;;;;;17.75;14.02;;;;;;;;;;5107848;28;20184;-61
2021/06/17 06:49:47;;;;;;;15.85;14.35;;;;;;;;;;5107520;28;20204;-61
2021/06/17 06:52:14;;;;;;;16.25;14.40;;;;;;;;;;5105776;28;20184;-63
2021/06/17 06:54:42;;;;;;;13.55;12.27;;;;;;;;;;5106656;28;20307;-63
2021/06/17 06:57:07;;;;;;;17.63;14.68;;;;;;;;;;5108284;27;20206;-62
2021/06/17 06:59:33;;;;;;;15.05;13.52;;;;;;;;;;5099315;28;20188;-61
2021/06/17 07:02:03;;;;;;;14.93;13.25;;;;;;;;;;5108755;28;20200;-61
2021/06/17 07:04:28;;;;;;;15.77;14.27;;;;;;;;;;5106485;28;20710;-63
2021/06/17 07:06:53;;;;;;;16.08;14.48;;;;;;;;;;5126500;27;20192;-61
2021/06/17 07:09:19;;;;;;;14.05;12.57;;;;;;;;;;5111747;28;20203;-61
2021/06/17 07:11:49;;;;;;;14.45;13.07;;;;;;;;;;5102237;27;20275;-62
2021/06/17 07:14:16;;;;;;;16.65;14.38;;;;;;;;;;5104016;28;20741;-63
2021/06/17 07:16:44;;;;;;;16.92;13.55;;;;;;;;;;5098176;28;20559;-63
2021/06/17 07:19:11;;;;;;;14.80;12.60;;;;;;;;;;5107964;28;20257;-63
2021/06/17 07:21:36;;;;;;;15.68;13.00;;;;;;;;;;5098030;28;20184;-62
2021/06/17 07:24:04;;;;;;;14.00;12.50;;;;;;;;;;5105503;28;20210;-62
2021/06/17 07:26:32;;;;;;;12.48;11.25;;;;;;;;;;5105318;27;20302;-63
2021/06/17 07:28:58;;;;;;;14.70;11.68;;;;;;;;;;5104649;28;20222;-63
2021/06/17 07:31:24;;;;;;;11.95;10.75;;;;;;;;;;5099840;28;20208;-62
2021/06/17 07:33:51;;;;;;;12.57;11.27;;;;;;;;;;5096151;28;20690;-63
2021/06/17 07:36:20;;;;;;;11.77;10.77;;;;;;;;;;5107703;27;20233;-60
2021/06/17 07:38:50;;;;;;;11.80;10.55;;;;;;;;;;5103165;28;20252;-63
2021/06/17 07:41:18;;;;;;;12.13;10.93;;;;;;;;;;5108859;28;20566;-62
2021/06/17 07:43:46;;;;;;;15.77;11.75;;;;;;;;;;5109817;27;20652;-63
2021/06/17 07:46:13;;;;;;;11.82;10.70;;;;;;;;;;5105372;27;20425;-67
2021/06/17 07:48:43;;;;;;;11.60;10.60;;;;;;;;;;5111065;27;20203;-63
2021/06/17 07:51:09;;;;;;;12.88;11.52;;;;;;;;;;5110307;27;20230;-62
2021/06/17 07:53:39;;;;;;;12.20;11.20;;;;;;;;;;5112716;28;20542;-62
2021/06/17 07:56:09;;;;;;;12.50;11.23;;;;;;;;;;5111030;27;20553;-63
2021/06/17 07:58:34;;;;;;;10.90;10.00;;;;;;;;;;5103149;27;20208;-61
2021/06/17 08:01:04;;;;;;;11.98;10.77;;;;;;;;;;5101262;28;20719;-62
2021/06/17 08:03:32;;;;;;;11.18;10.15;;;;;;;;;;5102478;28;20587;-62
2021/06/17 08:06:01;;;;;;;11.82;10.75;;;;;;;;;;5116541;27;20255;-62
2021/06/17 08:08:30;;;;;;;11.43;10.40;;;;;;;;;;5109981;27;20209;-61
2021/06/17 08:10:56;;;;;;;11.27;10.18;;;;;;;;;;5111139;28;20234;-62
2021/06/17 08:13:21;;;;;;;11.68;10.50;;;;;;;;;;5115085;27;20190;-63
2021/06/17 08:15:49;;;;;;;11.15;10.15;;;;;;;;;;5111638;27;20207;-63
2021/06/17 08:18:19;;;;;;;11.82;10.70;;;;;;;;;;5107675;28;20216;-63
2021/06/17 08:20:44;;;;;;;11.70;10.75;;;;;;;;;;5112319;27;20343;-63
2021/06/17 08:23:20;;;;;;;12.13;10.68;;;;;;;;;;5109405;28;20674;-62
2021/06/17 08:25:47;;;;;;;12.43;11.15;;;;;;;;;;5113200;27;20201;-61
2021/06/17 08:28:17;;;;;;;11.95;10.85;;;;;;;;;;5109497;27;20804;-63
2021/06/17 08:30:43;;;;;;;12.65;11.68;;;;;;;;;;5105931;28;20277;-62
2021/06/17 08:33:11;;;;;;;13.55;12.48;;;;;;;;;;5108426;28;20227;-62
2021/06/17 08:35:36;;;;;;;13.55;12.48;;;;;;;;;;5112639;27;20244;-62
2021/06/17 08:38:02;;;;;;;14.00;13.00;;;;;;;;;;5111545;28;20179;-63
2021/06/17 08:40:34;;;;;;;13.73;12.63;;;;;;;;;;5110477;27;20183;-63
2021/06/17 08:43:05;;;;;;;13.45;12.30;;;;;;;;;;5106325;27;20179;-63
2021/06/17 08:45:32;;;;;;;13.70;12.52;;;;;;;;;;5105013;28;20229;-61
2021/06/17 08:48:02;;;;;;;13.10;12.05;;;;;;;;;;5110855;28;20236;-62
2021/06/17 08:50:28;;;;;;;13.05;11.85;;;;;;;;;;5099156;28;20204;-62
2021/06/17 08:52:55;;;;;;;11.32;10.57;;;;;;;;;;5105467;28;20650;-62
2021/06/17 08:55:25;;;;;;;12.18;11.10;;;;;;;;;;5099579;28;20263;-62
2021/06/17 08:57:54;;;;;;;12.43;11.30;;;;;;;;;;5112130;28;20243;-63
2021/06/17 09:00:32;;;;;;;12.80;11.73;;;;;;;;;;5106601;27;20179;-62
2021/06/17 09:03:06;;;;;;;12.55;11.63;;;;;;;;;;5104998;28;20179;-63
2021/06/17 09:05:37;;;;;;;11.57;10.75;;;;;;;;;;5104167;28;20211;-62
2021/06/17 09:08:06;;;;;;;11.60;10.30;;;;;;;;;;5105541;28;20247;-60
2021/06/17 09:10:34;;;;;;;10.98;10.05;;;;;;;;;;5105747;28;20259;-62
2021/06/17 09:13:03;;;;;;;11.32;10.32;;;;;;;;;;5090811;28;20184;-62
2021/06/17 09:15:34;;;;;;;10.10;9.18;;;;;;;;;;5104788;28;20206;-62
2021/06/17 09:18:22;;;;;;;11.40;10.38;;;;;;;;;;5102210;28;20187;-62
2021/06/17 09:20:51;;;;;;;10.52;9.63;;;;;;;;;;5101189;28;20233;-61
2021/06/17 09:23:26;;;;;;;9.27;8.68;;;;;;;;;;5109096;28;20186;-62
2021/06/17 09:26:01;;;;;;;9.00;8.30;;;;;;;;;;5104085;28;20203;-62
2021/06/17 09:29:07;;;;;;;9.32;8.63;;;;;;;;;;5107202;28;20255;-62
2021/06/17 09:31:34;;;;;;;8.25;7.55;;;;;;;;;;5104607;28;20195;-62
2021/06/17 09:34:06;;;;;;;7.53;6.88;;;;;;;;;;5110799;28;20290;-62
2021/06/17 09:36:33;;;;;;;7.07;6.57;;;;;;;;;;5109896;28;20216;-62
2021/06/17 09:39:09;;;;;;;7.47;6.95;;;;;;;;;;5108094;28;20175;-62
2021/06/17 09:41:51;;;;;;;8.52;7.20;;;;;;;;;;5104069;28;20191;-61
2021/06/17 09:44:29;;;;;;;7.43;6.57;;;;;;;;;;5111048;28;20217;-61
2021/06/17 09:47:18;;;;;;;7.95;7.15;;;;;;;;;;5110623;28;20191;-61
2021/06/17 09:49:44;;;;;;;8.63;6.97;;;;;;;;;;5097990;28;20207;-62
2021/06/17 09:52:11;;;;;;;8.48;7.68;;;;;;;;;;5102505;28;20716;-62
2021/06/17 09:54:40;;;;;;;7.88;7.28;;;;;;;;;;5110406;27;20705;-61
2021/06/17 09:57:10;;;;;;;9.18;6.95;;;;;;;;;;5107416;27;20229;-62
2021/06/17 09:59:47;;;;;;;7.03;6.32;;;;;;;;;;5095330;28;20178;-61
2021/06/17 10:02:22;;;;;;;7.75;6.93;;;;;;;;;;5112017;28;20206;-61
2021/06/17 10:04:48;;;;;;;7.65;6.00;;;;;;;;;;5112785;27;20214;-61
2021/06/17 10:07:16;;;;;;;7.43;6.72;;;;;;;;;;5108501;27;20278;-60
2021/06/17 10:09:43;;;;;;;6.47;5.95;;;;;;;;;;5110206;28;20868;-61
2021/06/17 10:12:11;;;;;;;7.90;7.15;;;;;;;;;;5110986;27;20760;-61
2021/06/17 10:14:40;;;;;;;7.10;6.53;;;;;;;;;;5105278;27;20217;-62
2021/06/17 10:17:07;;;;;;;7.25;6.55;;;;;;;;;;5106978;28;20222;-62
2021/06/17 10:19:35;;;;;;;6.85;5.90;;;;;;;;;;5096426;28;20659;-61
2021/06/17 10:22:02;;;;;;;7.20;6.50;;;;;;;;;;5110265;27;20266;-62
2021/06/17 10:24:30;;;;;;;6.03;5.63;;;;;;;;;;5109080;27;20199;-61
2021/06/17 10:27:05;;;;;;;6.72;6.22;;;;;;;;;;5108731;28;20202;-62
2021/06/17 10:29:39;;;;;;;6.53;6.03;;;;;;;;;;5109204;27;20689;-60
2021/06/17 10:32:06;;;;;;;6.57;5.88;;;;;;;;;;5111461;28;20218;-61
2021/06/17 10:34:40;;;;;;;5.80;5.30;;;;;;;;;;5112291;27;20210;-61
2021/06/17 10:37:06;;;;;;;7.25;5.40;;;;;;;;;;5108006;28;20176;-62
2021/06/17 10:39:43;;;;;;;5.50;5.00;;;;;;;;;;5103430;27;20184;-62
2021/06/17 10:42:13;;;;;;;5.90;5.30;;;;;;;;;;5110407;28;20719;-61
2021/06/17 10:44:49;;;;;;;8.20;5.10;;;;;;;;;;5114012;27;20222;-60
2021/06/17 10:47:47;;;;;;;5.55;5.03;;;;;;;;;;5102584;27;20262;-61
2021/06/17 10:50:19;;;;;;;5.40;4.97;;;;;;;;;;5114009;27;20279;-61
2021/06/17 10:52:45;;;;;;;5.15;4.65;;;;;;;;;;5112084;27;20203;-61
2021/06/17 10:55:19;;;;;;;4.55;4.20;;;;;;;;;;5106843;27;20240;-60
2021/06/17 10:57:51;;;;;;;4.97;4.47;;;;;;;;;;5099757;28;20800;-61
2021/06/17 11:00:28;;;;;;;5.55;4.57;;;;;;;;;;5113363;27;20213;-60
2021/06/17 11:03:03;;;;;;;4.38;4.07;;;;;;;;;;5102148;27;20284;-58
2021/06/17 11:05:28;;;;;;;4.82;4.32;;;;;;;;;;5103480;27;20217;-61
2021/06/17 11:08:28;;;;;;;3.87;3.50;;;;;;;;;;5097208;28;20183;-61
2021/06/17 11:11:05;;;;;;;4.68;4.28;;;;;;;;;;5106327;28;20472;-61
2021/06/17 11:13:34;;;;;;;4.50;4.03;;;;;;;;;;5105323;28;20179;-59
2021/06/17 11:16:04;;;;;;;3.88;3.58;;;;;;;;;;5111666;27;20243;-61
2021/06/17 11:18:43;;;;;;;3.95;3.65;;;;;;;;;;5098755;27;20194;-62
2021/06/17 11:21:23;;;;;;;4.43;4.13;;;;;;;;;;5098701;27;20273;-62
2021/06/17 11:24:09;;;;;;;4.38;4.07;;;;;;;;;;5097546;28;20253;-63
2021/06/17 11:26:44;;;;;;;3.50;3.15;;;;;;;;;;5103582;27;20227;-64
2021/06/17 11:29:15;;;;;;;15.45;2.80;;;;;;;;;;5110576;27;20215;-60
2021/06/17 11:31:51;;;;;;;3.45;3.00;;;;;;;;;;5100124;28;20325;-62
2021/06/17 11:34:36;;;;;;;3.10;2.83;;;;;;;;;;5108361;28;20200;-61
2021/06/17 11:37:13;;;;;;;5.25;3.20;;;;;;;;;;5108360;28;20203;-61
2021/06/17 11:39:41;;;;;;;4.10;3.28;;;;;;;;;;5107377;27;20799;-63
2021/06/17 11:42:17;;;;;;;5.72;2.58;;;;;;;;;;5100349;27;20623;-61
2021/06/17 11:44:42;;;;;;;3.78;3.03;;;;;;;;;;5108101;28;20221;-61
2021/06/17 11:47:11;;;;;;;3.42;2.70;;;;;;;;;;5108908;27;20263;-62
2021/06/17 11:49:43;;;;;;;3.75;3.35;;;;;;;;;;5107459;28;20197;-63
2021/06/17 11:52:14;;;;;;;5.07;2.88;;;;;;;;;;5103548;28;20315;-62
2021/06/17 11:54:45;;;;;;;3.40;2.90;;;;;;;;;;5103924;28;20230;-61
2021/06/17 11:57:14;;;;;;;3.63;3.15;;;;;;;;;;5104347;27;20192;-59
2021/06/17 11:59:44;;;;;;;4.05;2.78;;;;;;;;;;5095743;28;20650;-61
2021/06/17 12:02:15;;;;;;;3.40;3.10;;;;;;;;;;5098028;28;20219;-62
2021/06/17 12:04:59;;;;;;;3.58;2.58;;;;;;;;;;5101149;28;20199;-62
2021/06/17 12:07:30;;;;;;;3.80;3.03;;;;;;;;;;5109596;27;20215;-61
2021/06/17 12:10:17;;;;;;;3.45;3.15;;;;;;;;;;5112007;27;20231;-62
2021/06/17 12:13:03;;;;;;;5.45;3.30;;;;;;;;;;5096423;27;20274;-63
2021/06/17 12:15:33;;;;;;;3.25;2.95;;;;;;;;;;5093280;28;20208;-63
2021/06/17 12:18:06;;;;;;;2.90;2.70;;;;;;;;;;5101775;28;20278;-63
2021/06/17 12:20:39;;;;;;;3.47;3.17;;;;;;;;;;5102215;28;20191;-62
2021/06/17 12:23:11;;;;;;;3.97;3.25;;;;;;;;;;5101346;27;20192;-62
2021/06/17 12:25:57;;;;;;;3.70;2.95;;;;;;;;;;5096804;27;20750;-63
2021/06/17 12:28:28;;;;;;;6.07;3.03;;;;;;;;;;5101236;28;20264;-64
2021/06/17 12:30:56;;;;;;;3.03;2.83;;;;;;;;;;5102269;28;20184;-63
2021/06/17 12:33:24;;;;;;;3.10;2.90;;;;;;;;;;5095756;27;20248;-63
2021/06/17 12:35:53;;;;;;;7.45;3.47;;;;;;;;;;5099405;28;20199;-62
2021/06/17 12:38:29;;;;;;;3.80;3.28;;;;;;;;;;5104789;27;20215;-63
2021/06/17 12:40:57;;;;;;;3.85;3.33;;;;;;;;;;5105546;28;20188;-63
2021/06/17 12:43:25;;;;;;;3.08;2.85;;;;;;;;;;5096855;28;20684;-62
2021/06/17 12:46:04;;;;;;;3.33;3.03;;;;;;;;;;5102414;28;20565;-63
2021/06/17 12:54:31;;;;;;;7.75;3.33;;;;;;;;;;5109160;27;20210;-62
2021/06/17 12:57:17;;;;;;;4.47;3.42;;;;;;;;;;5101858;27;20188;-63
2021/06/17 12:59:45;;;;;;;2.92;2.70;;;;;;;;;;5102210;28;20204;-61
2021/06/17 13:02:14;;;;;;;4.53;3.38;;;;;;;;;;5100100;28;20211;-64
2021/06/17 13:04:42;;;;;;;3.05;2.75;;;;;;;;;;5104515;28;20304;-62
2021/06/17 13:07:16;;;;;;;3.17;2.60;;;;;;;;;;5097582;28;21575;-62
2021/06/17 13:09:43;;;;;;;4.28;2.53;;;;;;;;;;5102038;28;20188;-61
2021/06/17 13:12:27;;;;;;;3.20;2.90;;;;;;;;;;5100577;28;20196;-61
2021/06/17 13:15:02;;;;;;;3.20;2.90;;;;;;;;;;5102383;28;20204;-62
2021/06/17 13:17:35;;;;;;;3.38;3.10;;;;;;;;;;5106615;28;20241;-62
2021/06/17 13:20:03;;;;;;;3.20;2.53;;;;;;;;;;5095824;28;20698;-62
2021/06/17 13:22:30;;;;;;;3.40;2.67;;;;;;;;;;5097637;28;20827;-60
2021/06/17 13:25:06;;;;;;;4.22;3.35;;;;;;;;;;5104026;28;20593;-61
2021/06/17 13:27:35;;;;;;;3.35;3.00;;;;;;;;;;5100432;28;20301;-63
2021/06/17 13:30:05;;;;;;;3.03;2.72;;;;;;;;;;5104821;27;20643;-63
2021/06/17 13:32:33;;;;;;;2.22;2.03;;;;;;;;;;5100033;28;20256;-62
2021/06/17 13:35:01;;;;;;;2.80;2.60;;;;;;;;;;5107099;27;20212;-64
2021/06/17 13:37:29;;;;;;;2.63;2.42;;;;;;;;;;5108036;28;20176;-64
2021/06/17 13:39:57;;;;;;;3.08;2.83;;;;;;;;;;5106201;27;20267;-64
2021/06/17 13:42:27;;;;;;;3.67;2.80;;;;;;;;;;5103544;28;20190;-64
2021/06/17 13:44:54;;;;;;;3.47;3.17;;;;;;;;;;5104883;28;20218;-62
2021/06/17 13:47:19;;;;;;;3.08;2.88;;;;;;;;;;5111286;27;20176;-63
2021/06/17 13:49:50;;;;;;;3.30;3.00;;;;;;;;;;5107273;27;20212;-63
2021/06/17 13:52:17;;;;;;;3.85;3.50;;;;;;;;;;5109845;28;20298;-61
2021/06/17 13:54:43;;;;;;;3.78;3.03;;;;;;;;;;5105332;27;20659;-61
2021/06/17 13:57:13;;;;;;;2.78;2.40;;;;;;;;;;5104658;27;20274;-61
2021/06/17 13:59:41;;;;;;;2.88;2.67;;;;;;;;;;5097295;28;20209;-61
2021/06/17 14:02:11;;;;;;;3.47;2.40;;;;;;;;;;5109438;27;20187;-64
2021/06/17 14:04:39;;;;;;;4.43;3.40;;;;;;;;;;5092803;28;20215;-64
2021/06/17 14:07:07;;;;;;;3.22;2.92;;;;;;;;;;5106597;28;20685;-63
2021/06/17 14:09:32;;;;;;;4.15;3.17;;;;;;;;;;5106132;28;20204;-62
2021/06/17 14:12:01;;;;;;;3.80;3.30;;;;;;;;;;5105948;28;20724;-64
2021/06/17 14:14:29;;;;;;;3.47;3.03;;;;;;;;;;5105163;28;20230;-66
2021/06/17 14:16:54;;;;;;;4.20;3.42;;;;;;;;;;5107365;27;20387;-65
2021/06/17 14:19:19;;;;;;;3.30;2.92;;;;;;;;;;5103952;27;20188;-63
2021/06/17 14:21:49;;;;;;;3.40;3.10;;;;;;;;;;5105771;28;20187;-67
2021/06/17 14:24:16;;;;;;;4.20;3.80;;;;;;;;;;5107459;27;20264;-62
2021/06/17 14:26:48;;;;;;;3.83;3.42;;;;;;;;;;5105862;28;21166;-63
2021/06/17 14:29:20;;;;;;;4.10;3.78;;;;;;;;;;5111187;28;20203;-67
2021/06/17 14:31:47;;;;;;;3.80;3.47;;;;;;;;;;5112230;27;20269;-65
2021/06/17 14:34:18;;;;;;;6.57;2.25;;;;;;;;;;5107845;28;20203;-65
2021/06/17 14:36:43;;;;;;;2.30;2.10;;;;;;;;;;5109237;27;20176;-63
2021/06/17 14:39:11;;;;;;;4.38;3.13;;;;;;;;;;5115378;27;20198;-64
2021/06/17 14:41:36;;;;;;;7.13;3.53;;;;;;;;;;5111094;27;20195;-64
2021/06/17 14:44:07;;;;;;;4.95;2.90;;;;;;;;;;5115239;27;20211;-61
2021/06/17 14:46:35;;;;;;;3.22;2.05;;;;;;;;;;5109555;27;20203;-64
2021/06/17 14:49:02;;;;;;;6.53;3.30;;;;;;;;;;5114963;27;20238;-64
2021/06/17 14:51:28;;;;;;;4.45;3.63;;;;;;;;;;5111158;27;20228;-63